Brooks, KY (40109)

10:29 AM EDT on August 31, 2016 (GMT -0400)
Fairdale | | Change Station

Elev 459 ft 38.12 °N, 85.77 °W | Updated 7 seconds ago

Mostly Cloudy
Mostly Cloudy
81.5 °F
Feels Like 88 °F
N
0.0
Wind Variable Wind from NNW
Gusts 5.0 mph

Today
High -- | Low -- °F
--% Chance of Precip.
Yesterday
High -- | Low -- °F
Precip. -- in
Pressure 29.99 in
Visibility 7.0 miles
Clouds Few 4500 ft
Scattered Clouds 5500 ft
Mostly Cloudy 20000 ft
Heat Index 88 °F
Dew Point 76 °F
Humidity 82%
Rainfall 0.00 in
Snow Depth Not available.
7:12 AM 8:13 PM
Waning Crescent, 1% visible
METAR KSDF 311356Z 00000KT 7SM FEW045 SCT055 BKN200 28/21 A3000 RMK AO2 RAB24E32 SLP154 P0000 T02780206 $
Pressure 29.99 in
Visibility 7.0 miles
Clouds Few 4500 ft
Scattered Clouds 5500 ft
Mostly Cloudy 20000 ft
Heat Index 88 °F
Dew Point 76 °F
Humidity 82%
Rainfall 0.00 in
Snow Depth Not available.
7:12 AM 8:13 PM
Waning Crescent, 1% visible
METAR KSDF 311356Z 00000KT 7SM FEW045 SCT055 BKN200 28/21 A3000 RMK AO2 RAB24E32 SLP154 P0000 T02780206 $

10-Day Weather Forecast

Almanac

Astronomy

Aug. 31, 2016 Rise Set
Actual Time
Civil Twilight
Nautical Twilight
Astronomical Twilight
Moon
Length of Visible Light
Length of Day
Tomorrow will be .
, % of the Moon is Illuminated

Today's Extremes

State Highs State Lows

Community

WunderPhotos

Upload Photos

1,936,091 photos uploaded!

WunderBlog® & News

Nearby

Air Quality

  Air Quality AQ Index Pollutant
Not available.

Snow Depth

Station Depth Elevation

Earthquake Activity

City Distance Mag. Time & Date
Minimum magnitude displayed is 2.5.

Coastal Water Temperatures

Place Temperature

Stations

Nearby Weather Stations

Station Location Temp. Windchill Dew Point Humidity Wind Precip. Elev Updated Type
                   

Watches & Warnings

There are currently no watches in effect.